West Dover, VT (05351)

6:08 AM EDT on August 30, 2015 (GMT -0400)
Mt. Snow/Suntec Forest | | Change Station
CLOSE
Current Station
Personal Weather Station
Location: West Dover, VT
Elevation: 1932 ft
Nearby Weather Stations

Elev 1932 ft 42.95 °N, 72.89 °W | Updated 19 seconds ago

Mostly Cloudy
Mostly Cloudy
56.4 °F
Feels Like 56.4 °F
N
0.0
Wind Variable Wind from WSW
Gusts 0.0 mph

Today
High -- | Low -- °F
--% Chance of Precip.
Yesterday
High -- | Low -- °F
Precip. -- in
6:13 AM 7:29 PM
Full, 99% visible
Pressure 30.09 in
Visibility 2.5 miles
Clouds Few 200 ft
Dew Point 56 °F
Humidity 96%
Rainfall 0.00 in
Snow Depth Not available.
UV 0 out of 12
Pollen 9.10 out of 12
Air Quality Not available.
Flu Activity Not available.
SPECI KDDH 301002Z AUTO 00000KT 2 1/2SM BR FEW002 13/12 A3009 RMK AO2 T01330122 $
Pressure 30.09 in
Visibility 2.5 miles
Clouds Few 200 ft
Dew Point 56 °F
Humidity 96%
Rainfall 0.00 in
Snow Depth Not available.
UV 0 out of 12
Pollen 9.10 out of 12
Air Quality Not available.
Flu Activity Not available.
SPECI KDDH 301002Z AUTO 00000KT 2 1/2SM BR FEW002 13/12 A3009 RMK AO2 T01330122 $

10-Day Weather Forecast

×

Almanac

Astronomy

Aug. 30, 2015 Rise Set
Actual Time
Civil Twilight
Nautical Twilight
Astronomical Twilight
Moon
Length of Visible Light
Length of Day
Tomorrow will be .
, % of the Moon is Illuminated

Today's Extremes

State Highs State Lows

Community

WunderPhotos

Upload Photos

1,850,919 photos uploaded!

WunderBlogs® & News

Nearby

Air Quality

  Air Quality AQ Index Pollutant
Not available.

Snow Depth

Station Depth Elevation

Earthquake Activity

City Distance Mag. Time & Date
Minimum magnitude displayed is 2.5.

Coastal Water Temperatures

Place Temperature

Stations

Nearby Weather Stations

Station Location Temp. Windchill Dew Point Humidity Wind Precip. Elev Updated Type